Kezdőlap
METAR-TAF:

METAR-TAF

Repülőterek :

Deer Lake, Újfundland és Labrador, Kanada

földrajzi szélesség: 49-13N, földrajzi hosszúság: 057-24W, magasság: 17 m

Jelenlegi meteorológiai megfigyelések

A jelentés 41 perccel ezelõtt készült, 23:00 UTC
Északkeleti szél 4 kt
Hőmérséklet -3°C
Páratartalom 93%
Légköri nyomás 1022 hPa
Látótávolság: 24.1 km
Szakadozott felhőzet 24000 lábon

METAR: CYDF 182300Z 05004KT 15SM BKN240 M03/M04 A3018 RMK CI7 SLP223

Idő: 20:11 (23:41 UTC)

Előrejelzés

A jelentés 4 órával és 3 perccel ezelõtt készült, 19:38 UTC
Az előrejelzés 18-én 20 óra UTC és 19-én 08 óra UTC között érvényes
Különbözõ irányokból fújó szél 3 kt
Látótávolság: 10 km
Szórványos felhőzet 3000 lábon
19-én 0600 órától UTC szerint
Északkeleti szél 8 kt
Látótávolság: 10 km
Szakadozott felhőzet 14000 lábon

TAF: CYDF 181938Z 1820/1908 VRB03KT P6SM SCT030 FM190600 04008KT P6SM BKN140 RMK NXT FCST BY 190200Z

Meteorológiai megfigyelések és előrejelzések több, mint 4000 repülőtéren (METAR és TAF jelentéseket).

A térképen piros és sárga pontok jelzik az elérhető meteorológiai állomásokat.

Mozgassa az egeret a pont fölött, hogy megjelenjen az állomás neve.

Azután kattintson az időjárási megfigyelések és előrejelzések megtekintéséhez.

A térkép megváltoztatása: kattintson a fekete keresztel jelölt zöld gombra ráközelítéshez, a vonallal jelölt zöld gombra távolításhoz, vagy a zöld nyilakra a szomszédos térképek eléréséhez.


METAR-TAF: